Time;durP1;ratioP1;P1;durP2;ratioP2;P2;SDS_P1;SDS_P2;PMS_P1;PMS_P2;Temp;Humidity;BMP_temperature;BMP_pressure;BME280_temperature;BME280_humidity;BME280_pressure;Samples;Min_cycle;Max_cycle;Signal;HPM_P1;HPM_P2
2021/04/02 00:00:57;;;;;;;45.80;28.67;;;;;;;10.38;73.57;93960.53;1730593;81;21861;-63
2021/04/02 00:03:33;;;;;;;48.55;30.02;;;;;;;10.39;73.39;93957.19;1731038;82;21099;-63
2021/04/02 00:06:02;;;;;;;46.20;26.60;;;;;;;10.37;73.49;93956.89;1730864;82;21195;-63
2021/04/02 00:08:30;;;;;;;40.75;27.05;;;;;;;10.42;73.65;93946.63;1728342;81;21143;-63
2021/04/02 00:11:05;;;;;;;53.52;30.57;;;;;;;10.47;73.78;93948.73;1759436;81;21144;-63
2021/04/02 00:13:37;;;;;;;52.13;30.25;;;;;;;10.48;73.55;93950.27;1743536;82;21088;-63
2021/04/02 00:16:06;;;;;;;48.65;28.60;;;;;;;10.42;73.73;93945.26;1742741;82;21079;-63
2021/04/02 00:18:34;;;;;;;39.27;26.62;;;;;;;10.44;73.79;93953.80;1743043;82;21437;-63
2021/04/02 00:21:05;;;;;;;53.55;32.93;;;;;;;10.41;73.92;93949.23;1751885;81;21096;-63
2021/04/02 00:23:35;;;;;;;50.33;30.30;;;;;;;10.32;74.17;93943.16;1751640;81;21097;-63
2021/04/02 00:26:07;;;;;;;46.15;28.32;;;;;;;10.25;74.37;93943.51;1751247;81;21196;-63
2021/04/02 00:28:36;;;;;;;51.58;27.62;;;;;;;10.21;74.39;93939.39;1720504;81;21197;-62
2021/04/02 00:31:03;;;;;;;42.55;25.95;;;;;;;10.18;74.72;93949.31;1738463;82;21272;-62
2021/04/02 00:33:33;;;;;;;38.63;22.00;;;;;;;10.12;74.98;93944.91;1737654;81;21311;-61
2021/04/02 00:36:02;;;;;;;42.38;24.67;;;;;;;10.00;75.40;93942.47;1738455;82;21059;-63
2021/04/02 00:38:30;;;;;;;36.58;23.67;;;;;;;9.95;75.90;93935.49;1737057;81;21146;-63
2021/04/02 00:41:10;;;;;;;37.17;25.27;;;;;;;9.97;76.09;93934.41;1737411;82;20988;-63
2021/04/02 00:43:47;;;;;;;45.95;30.15;;;;;;;10.04;76.21;93929.98;1737848;82;22283;-63
2021/04/02 00:46:18;;;;;;;55.45;33.30;;;;;;;10.08;76.32;93929.98;1737126;82;21343;-63
2021/04/02 00:48:47;;;;;;;54.98;30.40;;;;;;;10.14;76.52;93925.99;1720111;82;21139;-62
2021/04/02 00:54:20;;;;;;;61.37;35.00;;;;;;;10.14;75.97;93919.13;1684464;85;21151;-62
2021/04/02 00:56:48;;;;;;;57.40;35.17;;;;;;;10.07;76.18;93901.58;1711301;83;21440;-61
2021/04/02 00:59:16;;;;;;;60.38;34.58;;;;;;;10.04;76.21;93892.89;1688666;83;21090;-61
2021/04/02 01:01:44;;;;;;;57.95;32.70;;;;;;;10.03;76.44;93883.13;1711333;83;21731;-63
2021/04/02 01:04:12;;;;;;;58.40;38.33;;;;;;;10.00;76.72;93875.16;1711151;83;21489;-63
2021/04/02 01:06:40;;;;;;;51.28;29.10;;;;;;;10.02;76.80;93882.98;1688033;83;21457;-63
2021/04/02 01:09:09;;;;;;;39.58;24.75;;;;;;;9.96;76.83;93882.06;1709709;82;21377;-63
2021/04/02 01:11:37;;;;;;;36.55;22.55;;;;;;;9.90;77.48;93875.05;1708304;83;21193;-62
2021/04/02 01:14:05;;;;;;;32.13;20.43;;;;;;;9.96;77.67;93866.95;1709849;83;21079;-62
2021/04/02 01:16:35;;;;;;;31.97;21.93;;;;;;;10.02;77.41;93863.74;1709928;83;21503;-61
2021/04/02 01:19:33;;;;;;;46.30;25.40;;;;;;;10.03;77.56;93862.52;1688028;83;21086;-61
2021/04/02 01:22:06;;;;;;;58.42;31.97;;;;;;;10.07;77.67;93867.23;1709756;83;21380;-62
2021/04/02 01:24:49;;;;;;;56.45;29.72;;;;;;;10.06;77.51;93854.71;1709993;83;21193;-63
2021/04/02 01:27:49;;;;;;;40.43;24.63;;;;;;;9.99;77.46;93858.52;1701633;83;21582;-62
2021/04/02 01:30:17;;;;;;;49.73;27.22;;;;;;;9.89;77.57;93852.94;1710372;83;21672;-63
2021/04/02 01:32:48;;;;;;;57.80;29.25;;;;;;;9.79;77.91;93846.57;1709596;83;21189;-62
2021/04/02 01:35:31;;;;;;;50.33;27.02;;;;;;;9.73;77.99;93845.66;1709855;82;22297;-62
2021/04/02 01:38:23;;;;;;;52.67;27.77;;;;;;;9.66;78.28;93841.25;1682435;83;21469;-63
2021/04/02 01:40:57;;;;;;;45.65;25.88;;;;;;;9.61;78.55;93848.00;1682084;85;21959;-62
2021/04/02 01:43:38;;;;;;;47.33;26.35;;;;;;;9.61;78.96;93838.39;1661352;85;21077;-66
2021/04/02 01:46:09;;;;;;;37.05;21.52;;;;;;;9.67;79.20;93837.91;1683395;83;21180;-62
2021/04/02 01:48:40;;;;;;;30.88;20.43;;;;;;;9.79;79.03;93832.83;1661379;85;21406;-62
2021/04/02 01:51:10;;;;;;;39.90;24.27;;;;;;;9.79;78.78;93829.45;1682392;84;21169;-62
2021/04/02 01:53:45;;;;;;;43.70;24.20;;;;;;;9.76;78.63;93835.14;1703501;83;21575;-63
2021/04/02 01:56:14;;;;;;;42.38;25.72;;;;;;;9.70;78.79;93828.73;1657124;83;21945;-62
2021/04/02 01:58:44;;;;;;;41.55;23.67;;;;;;;9.73;79.16;93826.43;1710340;82;21162;-63
2021/04/02 02:01:16;;;;;;;27.98;19.62;;;;;;;9.81;78.86;93816.65;1714159;83;21205;-62
2021/04/02 02:03:51;;;;;;;33.00;20.95;;;;;;;9.89;78.79;93813.70;1713906;83;21107;-62
2021/04/02 02:06:19;;;;;;;27.82;17.42;;;;;;;9.93;78.49;93818.41;1699450;84;21168;-63
2021/04/02 02:09:13;;;;;;;27.95;15.60;;;;;;;9.96;78.72;93823.00;1674706;83;21115;-63
2021/04/02 02:11:41;;;;;;;33.73;18.65;;;;;;;9.92;77.89;93814.14;1707921;84;21586;-64
2021/04/02 02:14:14;;;;;;;39.60;17.07;;;;;;;9.80;77.78;93813.13;1706697;82;22342;-62
2021/04/02 02:16:51;;;;;;;34.60;17.90;;;;;;;9.72;77.92;93823.53;1731366;82;21606;-63
2021/04/02 02:19:22;;;;;;;49.35;24.35;;;;;;;9.68;78.24;93820.20;1730924;82;21206;-63
2021/04/02 02:21:53;;;;;;;38.98;23.27;;;;;;;9.62;78.06;93820.69;1731021;82;21170;-63
2021/04/02 02:24:21;;;;;;;44.08;23.98;;;;;;;9.53;78.34;93815.22;1707137;82;21143;-62
2021/04/02 02:26:50;;;;;;;47.33;26.00;;;;;;;9.49;78.59;93815.99;1731601;82;22357;-62
2021/04/02 02:29:19;;;;;;;54.03;26.25;;;;;;;9.50;79.01;93817.52;1731116;82;21209;-63
2021/04/02 02:31:48;;;;;;;43.80;25.90;;;;;;;9.59;79.20;93807.27;1731773;82;21944;-63
2021/04/02 02:34:18;;;;;;;48.13;26.82;;;;;;;9.70;79.08;93805.39;1730098;82;21459;-64
2021/04/02 02:36:48;;;;;;;54.18;28.73;;;;;;;9.75;78.67;93810.24;1731295;82;21225;-62
2021/04/02 02:39:17;;;;;;;45.30;24.57;;;;;;;9.68;78.44;93815.48;1733031;81;21399;-63
2021/04/02 02:41:47;;;;;;;53.83;24.07;;;;;;;9.59;78.41;93807.89;1731032;82;21103;-63
2021/04/02 02:44:15;;;;;;;48.87;21.75;;;;;;;9.45;78.52;93807.17;1731554;82;21425;-63
2021/04/02 02:46:43;;;;;;;39.63;18.98;;;;;;;9.32;78.61;93805.21;1731731;82;21586;-64
2021/04/02 02:49:15;;;;;;;24.43;12.73;;;;;;;9.21;78.78;93802.20;1731932;82;21126;-63
2021/04/02 02:51:45;;;;;;;47.93;20.75;;;;;;;9.11;78.86;93804.80;1731023;82;21438;-63
2021/04/02 02:54:21;;;;;;;37.25;18.50;;;;;;;9.01;79.02;93804.06;1666834;84;21103;-62
2021/04/02 02:56:52;;;;;;;33.20;16.80;;;;;;;8.97;79.50;93804.83;1699356;84;21766;-62
2021/04/02 02:59:22;;;;;;;33.55;16.48;;;;;;;9.01;79.84;93795.83;1686623;84;22029;-62
2021/04/02 03:01:52;;;;;;;42.23;20.20;;;;;;;9.10;79.71;93795.80;1698825;84;21195;-63
2021/04/02 03:04:21;;;;;;;40.35;19.37;;;;;;;9.20;79.77;93791.05;1698836;84;21343;-63
2021/04/02 03:06:51;;;;;;;37.83;19.67;;;;;;;9.31;79.70;93794.09;1698208;84;21190;-63
2021/04/02 03:09:21;;;;;;;36.03;19.82;;;;;;;9.36;79.26;93784.62;1697538;83;21266;-62
2021/04/02 03:11:51;;;;;;;44.25;21.30;;;;;;;9.38;79.12;93782.17;1696666;84;21158;-62
2021/04/02 03:14:21;;;;;;;40.67;22.60;;;;;;;9.34;79.03;93785.70;1698747;84;21614;-62
2021/04/02 03:16:52;;;;;;;39.00;21.25;;;;;;;9.37;79.30;93784.77;1699130;84;21255;-63
2021/04/02 03:19:23;;;;;;;45.33;25.45;;;;;;;9.46;79.05;93790.22;1699090;84;21132;-62
2021/04/02 03:21:53;;;;;;;;;;;;;;;9.52;78.87;93787.61;1701286;83;21523;-63
2021/04/02 03:24:24;;;;;;;44.18;26.05;;;;;;;9.56;78.73;93785.45;1685428;84;20239;-62
2021/04/02 03:26:54;;;;;;;46.70;26.33;;;;;;;9.52;78.30;93786.23;1698952;84;21099;-62
2021/04/02 03:29:23;;;;;;;37.83;25.60;;;;;;;9.41;78.17;93783.98;1699247;84;23199;-62
2021/04/02 03:31:56;;;;;;;39.48;20.20;;;;;;;9.32;78.74;93780.52;1698525;84;21103;-61
2021/04/02 03:34:24;;;;;;;35.73;20.77;;;;;;;9.37;78.88;93773.80;1697829;84;21172;-63
2021/04/02 03:36:54;;;;;;;32.10;20.10;;;;;;;9.39;78.86;93767.82;1664202;84;21524;-61
2021/04/02 03:39:29;;;;;;;43.90;25.27;;;;;;;9.42;78.67;93760.06;1698175;84;21188;-62
2021/04/02 03:42:01;;;;;;;51.65;33.70;;;;;;;9.40;78.58;93753.65;1698279;83;21652;-63
2021/04/02 03:44:32;;;;;;;53.70;37.75;;;;;;;9.40;78.63;93752.28;1698653;84;21545;-64
2021/04/02 03:47:03;;;;;;;59.35;41.40;;;;;;;9.47;78.45;93758.05;1687138;84;21095;-62
2021/04/02 03:49:35;;;;;;;56.45;37.70;;;;;;;9.53;78.14;93761.67;1685246;84;21174;-62
2021/04/02 03:52:07;;;;;;;59.25;39.83;;;;;;;9.52;78.01;93758.78;1686661;84;21076;-62
2021/04/02 03:54:36;;;;;;;44.25;29.52;;;;;;;9.49;78.03;93761.86;1723052;82;21214;-61
2021/04/02 03:57:07;;;;;;;43.40;26.65;;;;;;;9.50;77.92;93754.38;1731527;82;21548;-62
2021/04/02 03:59:36;;;;;;;49.50;27.62;;;;;;;9.43;77.54;93752.72;1706157;82;21094;-62
2021/04/02 04:02:06;;;;;;;46.33;25.92;;;;;;;9.37;77.90;93753.80;1732097;82;21099;-63
2021/04/02 04:04:35;;;;;;;32.48;18.92;;;;;;;9.37;78.20;93751.06;1731354;82;21078;-63
2021/04/02 04:07:05;;;;;;;31.75;17.25;;;;;;;9.38;77.74;93759.44;1730893;82;21238;-62
2021/04/02 04:09:36;;;;;;;23.50;15.20;;;;;;;9.29;77.98;93755.38;1701544;82;21151;-62
2021/04/02 04:12:07;;;;;;;25.70;14.87;;;;;;;9.29;78.17;93755.38;1682479;85;21196;-64
2021/04/02 04:14:57;;;;;;;26.70;16.45;;;;;;;9.27;77.82;93747.59;1871392;75;22353;-64
2021/04/02 04:17:26;;;;;;;26.45;16.32;;;;;;;9.12;77.90;93744.59;1838373;77;21070;-63
2021/04/02 04:19:56;;;;;;;24.15;16.20;;;;;;;9.06;78.21;93747.83;1838938;78;21249;-63
2021/04/02 04:22:25;;;;;;;21.40;15.90;;;;;;;9.08;78.70;93748.86;1839645;77;21828;-62
2021/04/02 04:24:54;;;;;;;22.30;12.68;;;;;;;9.12;78.55;93742.63;1840413;78;21085;-63
2021/04/02 04:27:21;;;;;;;18.15;12.03;;;;;;;9.16;78.61;93749.30;1839833;77;21184;-63
2021/04/02 04:29:51;;;;;;;12.85;11.45;;;;;;;9.14;78.62;93744.89;1840330;77;21112;-62
2021/04/02 04:32:20;;;;;;;14.80;10.80;;;;;;;9.15;78.63;93747.78;1840171;78;22047;-63
2021/04/02 04:34:49;;;;;;;21.85;12.78;;;;;;;9.19;78.47;93742.89;1788735;79;21399;-62
2021/04/02 04:37:19;;;;;;;22.77;18.00;;;;;;;9.19;78.21;93739.55;1807378;79;21077;-62
2021/04/02 04:39:47;;;;;;;32.67;21.57;;;;;;;9.15;78.33;93740.33;1805222;79;21152;-63
2021/04/02 04:42:17;;;;;;;33.98;23.27;;;;;;;9.09;78.20;93745.52;1777684;79;21137;-63
2021/04/02 04:44:48;;;;;;;34.15;22.60;;;;;;;9.03;78.41;93737.78;1778247;79;21646;-63
2021/04/02 04:47:16;;;;;;;35.52;22.65;;;;;;;9.07;79.03;93741.11;1777432;79;21589;-62
2021/04/02 04:49:44;;;;;;;38.42;24.52;;;;;;;9.21;79.00;93737.73;1778121;79;21168;-63
2021/04/02 04:52:15;;;;;;;29.20;20.92;;;;;;;9.30;78.58;93733.56;1807436;79;21537;-63
2021/04/02 04:54:46;;;;;;;24.65;18.07;;;;;;;9.32;78.53;93728.37;1806874;78;21576;-63
2021/04/02 04:57:14;;;;;;;31.20;19.32;;;;;;;9.34;78.34;93736.89;1777952;79;21860;-63
2021/04/02 04:59:42;;;;;;;30.60;20.32;;;;;;;9.35;78.25;93737.05;1807145;79;21427;-62
2021/04/02 05:02:10;;;;;;;24.87;17.35;;;;;;;9.36;78.09;93733.84;1807206;79;21428;-63
2021/04/02 05:04:38;;;;;;;35.13;20.48;;;;;;;9.34;77.76;93737.67;1806994;78;21892;-65
2021/04/02 05:07:10;;;;;;;49.13;29.37;;;;;;;9.27;77.65;93735.87;1807332;79;21192;-62
2021/04/02 05:09:38;;;;;;;39.53;24.32;;;;;;;9.12;77.78;93733.63;1804680;79;21535;-63
2021/04/02 05:12:10;;;;;;;31.00;18.25;;;;;;;9.02;78.12;93734.86;1793945;80;21111;-62
2021/04/02 05:14:39;;;;;;;32.85;21.10;;;;;;;9.02;78.55;93728.77;1806122;79;21092;-63
2021/04/02 05:17:08;;;;;;;33.55;19.80;;;;;;;9.11;78.53;93732.10;1781888;79;21138;-65
2021/04/02 05:19:37;;;;;;;35.63;23.80;;;;;;;9.17;78.47;93731.02;1800484;78;21896;-64
2021/04/02 05:22:06;;;;;;;34.88;24.02;;;;;;;9.28;78.69;93728.52;1783710;79;21336;-63
2021/04/02 05:24:34;;;;;;;36.50;25.97;;;;;;;9.41;78.33;93722.23;1751634;80;21518;-65
2021/04/02 05:27:05;;;;;;;36.53;24.87;;;;;;;9.44;78.17;93724.05;1777347;80;21180;-62
2021/04/02 05:29:33;;;;;;;42.88;28.25;;;;;;;9.51;78.24;93723.72;1777138;79;21434;-65
2021/04/02 05:32:03;;;;;;;49.88;34.25;;;;;;;9.63;77.86;93730.22;1776979;80;21199;-65
2021/04/02 05:34:31;;;;;;;54.38;35.98;;;;;;;9.73;77.67;93728.34;1801511;78;21373;-63
2021/04/02 05:37:02;;;;;;;35.50;24.05;;;;;;;9.79;77.48;93731.95;1808925;79;21458;-63
2021/04/02 05:39:32;;;;;;;71.75;39.00;;;;;;;9.78;76.85;93732.44;1809255;78;21332;-62
2021/04/02 05:42:05;;;;;;;67.58;39.78;;;;;;;9.63;76.47;93743.95;1809419;79;21478;-63
2021/04/02 05:44:36;;;;;;;67.15;37.33;;;;;;;9.50;76.81;93747.52;1809484;79;21843;-66
2021/04/02 05:47:07;;;;;;;56.25;35.03;;;;;;;9.40;77.25;93748.79;1809555;79;21253;-66
2021/04/02 05:49:35;;;;;;;42.62;27.32;;;;;;;9.31;77.45;93748.20;1807874;78;21147;-64
2021/04/02 05:52:05;;;;;;;48.23;31.52;;;;;;;9.25;77.75;93756.89;1807404;79;21136;-61
2021/04/02 05:54:38;;;;;;;46.02;31.30;;;;;;;9.24;77.88;93760.13;1760952;81;21203;-62
2021/04/02 05:57:08;;;;;;;45.10;29.02;;;;;;;9.23;77.83;93758.60;1729923;82;21419;-62
2021/04/02 05:59:38;;;;;;;26.60;16.70;;;;;;;9.29;77.88;93773.20;1735123;82;22343;-62
2021/04/02 06:02:12;;;;;;;24.77;15.63;;;;;;;9.34;77.41;93768.45;1734746;82;21188;-62
2021/04/02 06:04:40;;;;;;;31.17;19.85;;;;;;;9.40;76.90;93766.63;1734545;82;21284;-64
2021/04/02 06:07:08;;;;;;;20.08;14.53;;;;;;;9.45;76.85;93769.48;1719802;82;21932;-65
2021/04/02 06:09:37;;;;;;;15.43;11.20;;;;;;;9.56;76.65;93766.23;1734121;82;21179;-62
2021/04/02 06:12:09;;;;;;;14.47;11.35;;;;;;;9.68;76.26;93765.28;1719921;82;22267;-63
2021/04/02 06:14:39;;;;;;;19.48;12.95;;;;;;;9.75;75.61;93767.67;1696170;82;21195;-66
2021/04/02 06:17:08;;;;;;;18.85;10.43;;;;;;;9.68;75.41;93765.28;1760521;81;21145;-63
2021/04/02 06:19:36;;;;;;;12.03;8.78;;;;;;;9.60;75.60;93768.97;1713289;81;21203;-64
2021/04/02 06:22:05;;;;;;;19.42;10.95;;;;;;;9.56;75.77;93769.76;1714952;82;21331;-75
2021/04/02 06:24:43;;;;;;;15.10;10.50;;;;;;;9.51;76.20;93775.11;1714563;82;21266;-76
2021/04/02 06:27:14;;;;;;;14.95;9.98;;;;;;;9.52;76.23;93770.54;1730389;82;21221;-63
2021/04/02 06:29:45;;;;;;;12.33;9.48;;;;;;;9.56;76.37;93771.73;1741388;82;21286;-76
2021/04/02 06:32:15;;;;;;;15.05;9.73;;;;;;;9.53;76.35;93775.41;1741542;82;21891;-69
2021/04/02 06:34:48;;;;;;;17.07;10.75;;;;;;;9.43;76.52;93775.30;1741121;82;21204;-72
2021/04/02 06:37:17;;;;;;;19.95;13.10;;;;;;;9.40;76.83;93770.12;1741437;82;22472;-65
2021/04/02 06:39:52;;;;;;;16.70;12.18;;;;;;;9.51;77.18;93776.48;1741506;82;21253;-64
2021/04/02 06:42:32;;;;;;;17.55;12.73;;;;;;;9.62;76.88;93772.64;1741407;82;21408;-62
2021/04/02 06:45:07;;;;;;;22.42;13.13;;;;;;;9.71;76.77;93776.70;1741797;82;21168;-65
2021/04/02 06:47:36;;;;;;;18.45;13.78;;;;;;;9.85;76.42;93773.28;1741498;82;21121;-63
2021/04/02 06:50:20;;;;;;;19.82;12.65;;;;;;;9.87;76.23;93779.84;1741350;82;21465;-64
2021/04/02 06:52:56;;;;;;;57.58;29.30;;;;;;;9.89;76.25;93776.61;1741557;82;21165;-65
2021/04/02 06:55:26;;;;;;;44.33;26.37;;;;;;;9.88;76.36;93776.47;1746391;82;21001;-62
2021/04/02 06:57:56;;;;;;;35.50;22.40;;;;;;;9.94;76.38;93781.47;1741562;82;21457;-58
2021/04/02 07:00:27;;;;;;;25.88;18.05;;;;;;;9.98;76.21;93775.20;1741743;82;21349;-59
2021/04/02 07:02:55;;;;;;;26.62;19.15;;;;;;;10.06;76.10;93775.80;1741676;82;21445;-60
2021/04/02 07:05:25;;;;;;;20.95;13.18;;;;;;;10.15;75.86;93777.73;1741412;82;21160;-67
2021/04/02 07:08:06;;;;;;;19.32;13.80;;;;;;;10.21;75.24;93777.23;1741731;82;21328;-64
2021/04/02 07:10:37;;;;;;;19.60;13.00;;;;;;;10.14;75.12;93781.72;1741783;82;21359;-63
2021/04/02 07:13:08;;;;;;;34.85;24.65;;;;;;;10.09;75.46;93789.20;1742118;82;21424;-57
2021/04/02 07:15:38;;;;;;;27.70;17.75;;;;;;;10.05;75.51;93779.78;1743638;81;21420;-58
2021/04/02 07:20:48;;;;;;;18.32;11.55;;;;;;;10.28;74.66;93779.62;1905233;74;22286;-67
2021/04/02 07:23:17;;;;;;;14.47;9.28;;;;;;;10.24;74.27;93785.31;1845533;77;21851;-63
2021/04/02 07:25:45;;;;;;;19.73;13.13;;;;;;;10.19;74.09;93788.68;1845339;77;21530;-66
2021/04/02 07:28:13;;;;;;;25.12;19.73;;;;;;;10.16;74.37;93787.50;1844912;76;21176;-60
2021/04/02 07:30:42;;;;;;;32.78;27.77;;;;;;;10.22;74.12;93783.64;1845392;77;21836;-65
2021/04/02 07:33:11;;;;;;;21.90;14.50;;;;;;;10.30;74.08;93790.91;1787868;77;21421;-64
2021/04/02 07:35:41;;;;;;;21.87;15.65;;;;;;;10.40;73.62;93786.88;1812320;77;21873;-62
2021/04/02 07:38:15;;;;;;;16.57;11.22;;;;;;;10.41;73.10;93796.64;1812264;79;21898;-68
2021/04/02 07:40:49;;;;;;;17.02;11.68;;;;;;;10.42;72.57;93793.44;1811873;79;21184;-65
2021/04/02 07:43:16;;;;;;;;;;;;;;;10.36;72.48;93788.42;1814518;77;21478;-61
2021/04/02 07:45:51;;;;;;;16.97;12.98;;;;;;;10.28;72.12;93794.14;1782532;79;20259;-65
2021/04/02 07:48:24;;;;;;;21.90;16.90;;;;;;;10.18;72.85;93791.91;1782822;79;21188;-68
2021/04/02 07:50:58;;;;;;;18.15;14.15;;;;;;;10.26;73.22;93794.45;1811594;77;22237;-64
2021/04/02 07:53:34;;;;;;;23.10;16.30;;;;;;;10.47;72.71;93799.66;1781601;79;21456;-56
2021/04/02 07:56:13;;;;;;;22.25;14.68;;;;;;;10.55;72.12;93795.94;1811487;79;21929;-64
2021/04/02 07:58:53;;;;;;;20.02;15.35;;;;;;;10.63;71.77;93799.84;1811803;79;21384;-63
2021/04/02 08:01:23;;;;;;;17.07;13.13;;;;;;;10.69;71.31;93800.73;1811777;78;21513;-62
2021/04/02 08:03:53;;;;;;;20.15;15.83;;;;;;;10.56;71.00;93795.45;1811719;79;21317;-59
2021/04/02 08:06:42;;;;;;;17.90;11.28;;;;;;;10.50;71.34;93802.09;1811769;79;21877;-58
2021/04/02 08:09:10;;;;;;;54.58;34.25;;;;;;;10.51;71.40;93802.98;1811988;79;21460;-64
2021/04/02 08:11:47;;;;;;;24.47;15.65;;;;;;;10.61;71.43;93798.18;1812026;79;21447;-61
2021/04/02 08:14:16;;;;;;;20.25;12.82;;;;;;;10.78;71.11;93798.67;1812123;79;21132;-65
2021/04/02 08:16:54;;;;;;;14.98;11.25;;;;;;;10.94;70.72;93796.83;1718197;79;21408;-58
2021/04/02 08:26:15;;;;;;;11.93;10.00;;;;;;;10.87;69.73;93807.61;1783047;80;21943;-58
2021/04/02 08:28:45;;;;;;;15.13;11.48;;;;;;;10.82;70.14;93802.73;1783108;80;21799;-61
2021/04/02 08:31:14;;;;;;;13.22;11.20;;;;;;;10.80;70.64;93816.20;1782778;80;22538;-58
2021/04/02 08:33:43;;;;;;;11.50;10.30;;;;;;;10.85;70.53;93810.08;1782532;79;21565;-64
2021/04/02 08:36:11;;;;;;;14.53;11.15;;;;;;;10.89;70.74;93804.37;1782436;80;21399;-65
2021/04/02 08:38:48;;;;;;;13.62;10.53;;;;;;;10.94;70.84;93804.48;1782054;80;21428;-62
2021/04/02 08:41:25;;;;;;;9.83;8.35;;;;;;;11.03;70.89;93805.79;1782399;80;21129;-62
2021/04/02 08:43:54;;;;;;;13.98;9.85;;;;;;;11.14;71.04;93809.36;1781839;79;21153;-65
2021/04/02 08:46:37;;;;;;;13.00;10.28;;;;;;;11.20;71.04;93808.20;1781622;79;21452;-61
2021/04/02 08:49:08;;;;;;;9.98;8.28;;;;;;;11.22;71.30;93809.89;1773339;80;22035;-63
2021/04/02 08:51:36;;;;;;;14.83;10.72;;;;;;;11.23;71.04;93814.16;1760231;80;21179;-64
2021/04/02 08:54:14;;;;;;;14.60;10.95;;;;;;;11.26;70.26;93814.59;1781411;80;21121;-65
2021/04/02 08:56:43;;;;;;;12.33;9.10;;;;;;;11.29;70.12;93808.12;1781923;79;21255;-64
2021/04/02 08:59:12;;;;;;;14.43;11.12;;;;;;;11.36;70.29;93818.76;1781701;80;21152;-62
2021/04/02 09:05:19;;;;;;;12.23;9.48;;;;;;;11.47;70.16;93813.45;1781868;80;21979;-58
2021/04/02 09:07:47;;;;;;;11.30;8.53;;;;;;;11.36;69.94;93816.64;1781802;80;21864;-64
2021/04/02 09:10:18;;;;;;;13.85;10.60;;;;;;;11.33;70.90;93820.34;1782417;80;21723;-62
2021/04/02 09:12:48;;;;;;;19.40;12.35;;;;;;;11.29;70.81;93819.14;1782205;80;21483;-73
2021/04/02 09:15:29;;;;;;;18.65;13.50;;;;;;;11.26;70.57;93822.85;1781963;80;21355;-71
2021/04/02 09:18:19;;;;;;;25.35;18.55;;;;;;;11.27;70.17;93824.97;1781835;80;21160;-73
2021/04/02 09:20:48;;;;;;;17.70;11.33;;;;;;;11.18;70.89;93827.19;1781575;79;21214;-68
2021/04/02 09:23:16;;;;;;;15.88;10.85;;;;;;;11.15;71.77;93827.39;1737304;80;21436;-73
2021/04/02 09:25:45;;;;;;;15.60;11.57;;;;;;;11.22;72.35;93830.54;1762247;80;21416;-74
2021/04/02 09:28:13;;;;;;;20.00;15.60;;;;;;;11.34;71.96;93829.48;1762403;80;21227;-80
2021/04/02 09:34:20;;;;;;;11.83;8.75;;;;;;;11.46;72.02;93832.59;1781925;79;21447;-71
2021/04/02 09:36:50;;;;;;;10.60;6.70;;;;;;;11.50;69.52;93837.29;1736778;80;21375;-68
2021/04/02 09:39:25;;;;;;;9.70;7.37;;;;;;;11.45;68.62;93828.92;1780271;80;21444;-75
2021/04/02 09:41:57;;;;;;;11.73;8.15;;;;;;;11.42;68.57;93836.16;1781171;80;21180;-65
2021/04/02 09:44:32;;;;;;;8.67;6.90;;;;;;;11.39;68.40;93835.70;1783055;80;21169;-79
2021/04/02 09:47:05;;;;;;;12.70;8.50;;;;;;;11.41;68.05;93836.02;1783888;80;21372;-63
2021/04/02 09:49:35;;;;;;;10.50;6.15;;;;;;;11.46;67.83;93844.98;1782290;79;21910;-66
2021/04/02 09:52:05;;;;;;;7.25;5.33;;;;;;;11.51;67.34;93836.05;1782737;80;21895;-65
2021/04/02 09:54:35;;;;;;;7.40;4.75;;;;;;;11.56;67.09;93832.66;1782176;79;21242;-65
2021/04/02 09:57:09;;;;;;;5.33;4.50;;;;;;;11.63;66.57;93828.77;1762159;80;21168;-68
2021/04/02 09:59:38;;;;;;;5.42;4.58;;;;;;;11.56;66.46;93826.41;1762142;80;21165;-59
2021/04/02 10:02:08;;;;;;;5.55;4.05;;;;;;;11.51;66.94;93827.79;1781680;80;21670;-66
2021/04/02 10:04:36;;;;;;;15.03;6.53;;;;;;;11.51;67.21;93828.42;1781717;78;21468;-64
2021/04/02 10:07:05;;;;;;;12.10;8.70;;;;;;;11.52;67.12;93825.81;1781789;80;21160;-64
2021/04/02 10:09:34;;;;;;;9.80;8.83;;;;;;;11.54;67.49;93824.71;1781841;80;21275;-65
2021/04/02 10:12:07;;;;;;;10.03;9.00;;;;;;;11.64;67.33;93825.55;1781648;79;21888;-66
2021/04/02 10:14:37;;;;;;;7.47;5.33;;;;;;;11.76;67.29;93822.35;1781914;80;21369;-64
2021/04/02 10:17:11;;;;;;;11.78;9.43;;;;;;;11.86;66.83;93829.29;1781836;80;21925;-64
2021/04/02 10:19:41;;;;;;;9.25;6.67;;;;;;;11.88;67.25;93812.40;1781616;79;21256;-65
2021/04/02 10:22:10;;;;;;;6.15;5.50;;;;;;;11.91;68.19;93822.47;1782402;79;21164;-63
2021/04/02 10:24:39;;;;;;;8.33;6.58;;;;;;;11.99;67.45;93820.08;1794599;79;21160;-62
2021/04/02 10:27:08;;;;;;;16.27;14.15;;;;;;;12.12;67.14;93821.28;1794719;79;22313;-62
2021/04/02 10:29:36;;;;;;;10.25;8.75;;;;;;;12.27;67.87;93817.13;1794449;79;21149;-64
2021/04/02 10:32:07;;;;;;;19.50;16.35;;;;;;;12.42;67.88;93810.31;1794498;79;21168;-64
2021/04/02 10:34:35;;;;;;;21.90;17.37;;;;;;;12.52;68.03;93811.72;1772578;79;21410;-65
2021/04/02 10:37:05;;;;;;;27.13;21.50;;;;;;;12.47;68.08;93809.63;1794799;79;21148;-65
2021/04/02 10:39:35;;;;;;;20.12;17.07;;;;;;;12.35;68.01;93822.37;1794668;79;21353;-64
2021/04/02 10:42:04;;;;;;;17.17;13.43;;;;;;;12.27;67.66;93822.01;1794661;79;21962;-64
2021/04/02 10:44:32;;;;;;;12.88;9.70;;;;;;;12.17;67.89;93825.36;1794588;78;21471;-64
2021/04/02 10:47:01;;;;;;;8.30;6.72;;;;;;;11.98;68.39;93827.60;1794546;79;21427;-64
2021/04/02 10:49:30;;;;;;;6.75;5.72;;;;;;;11.84;68.98;93833.11;1794549;79;21150;-61
2021/04/02 10:51:58;;;;;;;7.50;5.42;;;;;;;11.73;69.05;93835.70;1794459;79;21193;-64
2021/04/02 10:54:26;;;;;;;4.90;4.22;;;;;;;11.60;69.66;93828.34;1794337;79;21149;-64
2021/04/02 10:56:54;;;;;;;5.83;5.08;;;;;;;11.55;70.04;93830.36;1794636;79;21129;-61
2021/04/02 10:59:22;;;;;;;8.35;7.55;;;;;;;11.56;69.66;93831.28;1794952;79;21117;-62
2021/04/02 11:01:53;;;;;;;12.68;9.05;;;;;;;11.49;69.27;93835.77;1795156;79;21129;-62
2021/04/02 11:04:26;;;;;;;5.12;4.62;;;;;;;11.41;70.07;93834.64;1794388;78;22667;-60
2021/04/02 11:07:03;;;;;;;4.05;3.65;;;;;;;11.33;70.72;93842.37;1751062;79;21768;-58
2021/04/02 11:09:31;;;;;;;5.72;3.35;;;;;;;11.23;71.56;93843.07;1794704;79;21845;-59
2021/04/02 11:12:00;;;;;;;4.37;3.98;;;;;;;11.17;72.36;93846.32;1794596;79;21352;-58
2021/04/02 11:14:30;;;;;;;4.58;3.92;;;;;;;11.17;72.21;93844.20;1794779;79;21141;-58
2021/04/02 11:16:59;;;;;;;5.85;5.20;;;;;;;11.15;71.25;93841.91;1794777;79;21500;-60
2021/04/02 11:19:28;;;;;;;9.68;6.85;;;;;;;11.12;69.91;93844.83;1794064;79;21244;-57
2021/04/02 11:21:56;;;;;;;3.98;3.60;;;;;;;11.05;69.72;93851.48;1794680;79;21172;-57
2021/04/02 11:24:25;;;;;;;6.03;5.40;;;;;;;11.00;69.75;93850.74;1784492;78;21472;-57
2021/04/02 11:26:55;;;;;;;5.33;4.47;;;;;;;10.95;69.48;93847.27;1781809;80;21353;-60
2021/04/02 11:29:25;;;;;;;5.72;5.22;;;;;;;10.98;69.60;93842.83;1781862;79;21361;-60
2021/04/02 11:31:53;;;;;;;3.30;3.10;;;;;;;11.01;69.62;93843.26;1781705;80;21941;-58
2021/04/02 11:34:23;;;;;;;3.90;3.50;;;;;;;11.03;69.32;93847.67;1781730;79;21219;-56
2021/04/02 11:36:53;;;;;;;3.60;3.30;;;;;;;11.09;69.45;93857.56;1781553;80;21348;-59
2021/04/02 11:39:21;;;;;;;2.80;2.60;;;;;;;11.09;69.61;93856.79;1781841;80;21177;-63
2021/04/02 11:41:49;;;;;;;3.35;3.05;;;;;;;11.11;69.28;93852.95;1781662;79;21167;-59
2021/04/02 11:44:19;;;;;;;3.10;2.80;;;;;;;11.15;68.66;93846.03;1781995;80;21856;-58
2021/04/02 11:46:50;;;;;;;3.08;2.87;;;;;;;11.29;68.97;93841.17;1781680;79;21663;-59
2021/04/02 11:49:18;;;;;;;3.45;3.15;;;;;;;11.43;68.69;93837.67;1762198;80;21218;-59
2021/04/02 11:51:48;;;;;;;10.50;7.40;;;;;;;11.60;69.04;93848.40;1781894;80;21514;-58
2021/04/02 11:54:17;;;;;;;6.28;4.17;;;;;;;11.70;67.93;93852.56;1781426;78;23530;-57
2021/04/02 11:56:47;;;;;;;3.40;3.10;;;;;;;11.76;67.43;93854.81;1781686;80;21193;-56
2021/04/02 11:59:15;;;;;;;3.62;2.58;;;;;;;11.84;66.93;93857.92;1781706;80;21136;-59
2021/04/02 12:01:43;;;;;;;3.98;3.47;;;;;;;11.77;65.68;93856.94;1781586;80;21790;-59